Time;durP1;ratioP1;P1;durP2;ratioP2;P2;SDS_P1;SDS_P2;PMS_P1;PMS_P2;Temp;Humidity;BMP_temperature;BMP_pressure;BME280_temperature;BME280_humidity;BME280_pressure;Samples;Min_cycle;Max_cycle;Signal;HPM_P1;HPM_P2
2020/12/22 00:00:38;;;;;;;18.30;3.55;;;;;;;11.83;100.00;100479.13;6190352;23;20435;-77
2020/12/22 00:03:04;;;;;;;21.77;4.03;;;;;;;11.81;100.00;100473.88;6188883;23;20032;-77
2020/12/22 00:05:29;;;;;;;24.30;4.13;;;;;;;11.80;100.00;100469.41;6189044;23;20017;-77
2020/12/22 00:07:55;;;;;;;20.60;3.75;;;;;;;11.81;100.00;100470.22;6214564;23;20013;-77
2020/12/22 00:10:20;;;;;;;23.42;4.00;;;;;;;11.80;100.00;100463.84;6190015;23;20415;-77
2020/12/22 00:12:46;;;;;;;19.63;3.28;;;;;;;11.81;100.00;100467.44;6188906;23;20075;-77
2020/12/22 00:15:11;;;;;;;15.68;2.92;;;;;;;11.80;100.00;100474.97;6164282;23;20016;-77
2020/12/22 00:17:43;;;;;;;20.30;3.33;;;;;;;11.80;100.00;100469.41;6189602;23;20014;-77
2020/12/22 00:20:09;;;;;;;18.13;3.30;;;;;;;11.80;100.00;100466.63;6189377;23;20088;-77
2020/12/22 00:22:34;;;;;;;22.33;4.00;;;;;;;11.80;100.00;100463.84;6188795;23;20426;-77
2020/12/22 00:25:00;;;;;;;20.58;3.47;;;;;;;11.80;100.00;100477.75;6188504;23;20009;-77
2020/12/22 00:27:26;;;;;;;19.88;3.22;;;;;;;11.80;100.00;100466.63;6164439;23;20013;-77
2020/12/22 00:29:51;;;;;;;26.65;3.97;;;;;;;11.80;100.00;100466.63;6162967;23;20726;-77
2020/12/22 00:32:16;;;;;;;20.40;3.65;;;;;;;11.80;100.00;100466.63;6163886;23;20009;-76
2020/12/22 00:34:42;;;;;;;24.25;3.22;;;;;;;11.81;100.00;100471.09;6189868;23;20386;-75
2020/12/22 00:37:07;;;;;;;15.32;3.30;;;;;;;11.80;100.00;100465.81;6190696;23;20081;-75
2020/12/22 00:39:33;;;;;;;22.85;3.70;;;;;;;11.79;100.00;100466.94;6189988;23;20453;-75
2020/12/22 00:41:59;;;;;;;19.88;3.15;;;;;;;11.79;100.00;100462.22;6190165;23;20008;-75
2020/12/22 00:44:25;;;;;;;22.25;3.28;;;;;;;11.78;100.00;100466.13;6190189;23;20005;-75
2020/12/22 00:46:54;;;;;;;21.80;3.70;;;;;;;11.79;100.00;100464.16;6163969;23;20009;-75
2020/12/22 00:49:19;;;;;;;17.23;3.05;;;;;;;11.79;100.00;100461.38;6188467;23;20335;-75
2020/12/22 00:51:45;;;;;;;15.80;2.63;;;;;;;11.78;100.00;100466.13;6189404;23;20005;-76
2020/12/22 00:54:10;;;;;;;19.85;3.28;;;;;;;11.79;100.00;100472.50;6188680;23;20009;-76
2020/12/22 00:56:36;;;;;;;17.08;3.95;;;;;;;11.79;100.00;100484.47;6188822;23;20370;-76
2020/12/22 00:59:01;;;;;;;22.08;3.28;;;;;;;11.78;100.00;100482.81;6190312;23;20430;-76
2020/12/22 01:01:30;;;;;;;16.40;3.78;;;;;;;11.78;100.00;100482.81;6188392;23;20009;-75
2020/12/22 01:03:58;;;;;;;23.25;3.53;;;;;;;11.79;100.00;100481.69;6187982;23;20035;-75
2020/12/22 01:06:24;;;;;;;19.58;3.30;;;;;;;11.78;100.00;100481.97;6163916;23;20338;-75
2020/12/22 01:08:50;;;;;;;19.42;3.17;;;;;;;11.77;100.00;100475.59;6188741;23;20084;-75
2020/12/22 01:11:15;;;;;;;19.33;3.70;;;;;;;11.77;100.00;100472.81;6187900;23;20013;-75
2020/12/22 01:13:41;;;;;;;16.40;2.72;;;;;;;11.78;100.00;100468.06;6188376;23;20036;-75
2020/12/22 01:16:07;;;;;;;16.85;2.78;;;;;;;11.77;100.00;100467.25;6190193;23;20012;-75
2020/12/22 01:18:32;;;;;;;15.02;3.35;;;;;;;11.77;100.00;100467.25;6213151;23;20180;-76
2020/12/22 01:20:58;;;;;;;16.15;3.15;;;;;;;11.79;100.00;100456.63;6188237;23;20001;-75
2020/12/22 01:23:23;;;;;;;14.98;2.85;;;;;;;11.76;100.00;100442.53;6163485;23;20013;-76
2020/12/22 01:25:49;;;;;;;22.83;3.10;;;;;;;11.77;100.00;100452.50;6188250;23;20009;-75
2020/12/22 01:28:14;;;;;;;13.73;2.25;;;;;;;11.77;100.00;100461.69;6163778;23;20534;-76
2020/12/22 01:30:40;;;;;;;15.90;2.50;;;;;;;11.77;100.00;100470.03;6187170;23;20335;-75
2020/12/22 01:33:05;;;;;;;14.95;2.22;;;;;;;11.78;100.00;100471.69;6163204;23;20430;-76
2020/12/22 01:35:31;;;;;;;16.73;2.95;;;;;;;11.77;100.00;100486.72;6213623;23;20009;-75
2020/12/22 01:37:57;;;;;;;13.38;2.45;;;;;;;11.77;100.00;100466.41;6213352;23;20008;-76
2020/12/22 01:40:22;;;;;;;20.80;2.50;;;;;;;11.78;100.00;100477.25;6188032;23;20338;-75
2020/12/22 01:42:48;;;;;;;11.60;2.10;;;;;;;11.78;100.00;100460.56;6189506;23;20016;-75
2020/12/22 01:45:14;;;;;;;11.45;2.15;;;;;;;11.77;100.00;100470.03;6188496;23;20342;-75
2020/12/22 01:47:48;;;;;;;11.40;1.80;;;;;;;11.77;100.00;100470.03;6188294;23;20008;-75
2020/12/22 01:50:15;;;;;;;13.07;2.42;;;;;;;11.78;100.00;100468.06;6189526;23;20005;-75
2020/12/22 01:52:41;;;;;;;12.82;2.10;;;;;;;11.77;100.00;100471.97;6213107;23;20076;-75
2020/12/22 01:55:06;;;;;;;7.78;1.73;;;;;;;11.78;100.00;100477.25;6188207;23;20012;-75
2020/12/22 01:57:32;;;;;;;13.68;2.42;;;;;;;11.77;100.00;100474.75;6188328;23;20001;-75
2020/12/22 01:59:57;;;;;;;12.18;1.83;;;;;;;11.78;100.00;100473.63;6189514;23;20423;-75
2020/12/22 02:02:23;;;;;;;11.90;1.75;;;;;;;11.77;100.00;100467.25;6189482;23;20327;-76
2020/12/22 02:04:49;;;;;;;9.73;1.40;;;;;;;11.77;100.00;100463.63;6189573;23;20005;-75
2020/12/22 02:07:15;;;;;;;8.93;1.80;;;;;;;11.75;100.00;100466.72;6187984;23;20029;-75
2020/12/22 02:09:40;;;;;;;10.02;1.77;;;;;;;11.76;100.00;100471.16;6189149;23;20009;-75
2020/12/22 02:12:06;;;;;;;9.35;1.65;;;;;;;11.75;100.00;100477.84;6189456;23;20006;-75
2020/12/22 02:14:31;;;;;;;10.95;1.95;;;;;;;11.76;100.00;100481.47;6189967;23;20359;-75
2020/12/22 02:16:57;;;;;;;8.02;1.20;;;;;;;11.76;100.00;100484.25;6189759;23;20418;-75
2020/12/22 02:19:23;;;;;;;11.40;2.17;;;;;;;11.76;100.00;100498.97;6187657;23;20132;-75
2020/12/22 02:21:48;;;;;;;14.57;2.80;;;;;;;11.76;100.00;100473.94;6189577;23;20059;-75
2020/12/22 02:24:14;;;;;;;9.23;1.95;;;;;;;11.77;100.00;100488.69;6212536;23;20036;-75
2020/12/22 02:26:39;;;;;;;9.73;1.63;;;;;;;11.76;100.00;100496.19;6189958;23;20009;-75
2020/12/22 02:29:05;;;;;;;9.02;1.38;;;;;;;11.76;100.00;100496.19;6138376;23;20063;-75
2020/12/22 02:31:30;;;;;;;7.10;1.58;;;;;;;11.76;100.00;100503.72;6188553;23;20013;-75
2020/12/22 02:33:56;;;;;;;9.88;1.65;;;;;;;11.75;100.00;100502.88;6162929;23;20378;-75
2020/12/22 02:36:21;;;;;;;10.35;1.60;;;;;;;11.76;100.00;100509.28;6189791;23;20036;-75
2020/12/22 02:38:47;;;;;;;5.22;1.15;;;;;;;11.74;100.00;100517.09;6187789;23;20365;-75
2020/12/22 02:41:13;;;;;;;9.85;1.30;;;;;;;11.74;100.00;100514.31;6188745;23;20009;-75
2020/12/22 02:43:38;;;;;;;13.43;1.70;;;;;;;11.73;100.00;100516.28;6189544;23;20016;-75
2020/12/22 02:46:04;;;;;;;11.23;1.58;;;;;;;11.72;100.00;100500.69;6188194;23;20016;-76
2020/12/22 02:48:29;;;;;;;7.47;1.33;;;;;;;11.72;100.00;100506.25;6188835;23;20005;-75
2020/12/22 02:50:55;;;;;;;8.18;1.55;;;;;;;11.73;100.00;100501.53;6187805;23;20027;-75
2020/12/22 02:53:21;;;;;;;7.88;1.48;;;;;;;11.74;100.00;100505.97;6213120;23;20012;-75
2020/12/22 02:55:46;;;;;;;11.40;2.17;;;;;;;11.73;100.00;100491.25;6189394;23;20008;-75
2020/12/22 02:58:12;;;;;;;9.27;1.42;;;;;;;11.72;100.00;100503.47;6189153;23;20005;-75
2020/12/22 03:00:38;;;;;;;12.75;1.65;;;;;;;11.72;100.00;100503.47;6189352;23;20001;-75
2020/12/22 03:03:04;;;;;;;8.00;1.35;;;;;;;11.72;100.00;100509.03;6189054;23;20016;-75
2020/12/22 03:05:29;;;;;;;8.30;1.10;;;;;;;11.75;100.00;100513.19;6189473;23;20013;-75
2020/12/22 03:07:55;;;;;;;6.20;1.30;;;;;;;11.73;100.00;100513.50;6189268;23;20005;-75
2020/12/22 03:10:20;;;;;;;13.65;1.70;;;;;;;11.73;100.00;100509.88;6188684;23;20378;-75
2020/12/22 03:12:46;;;;;;;6.38;1.15;;;;;;;11.72;100.00;100509.03;6213048;23;20027;-75
2020/12/22 03:15:12;;;;;;;6.75;1.50;;;;;;;11.72;100.00;100513.78;6189431;23;20008;-75
2020/12/22 03:17:38;;;;;;;9.23;1.20;;;;;;;11.72;100.00;100505.44;6190556;23;20008;-75
2020/12/22 03:20:05;;;;;;;7.78;1.95;;;;;;;11.72;100.00;100511.84;6214369;23;20020;-76
2020/12/22 03:22:32;;;;;;;5.70;1.10;;;;;;;11.72;100.00;100499.88;6189677;23;20055;-75
2020/12/22 03:24:57;;;;;;;8.52;1.35;;;;;;;11.71;100.00;100507.41;6189656;23;20009;-75
2020/12/22 03:27:23;;;;;;;11.88;1.40;;;;;;;11.72;100.00;100511.84;6189344;23;20020;-75
2020/12/22 03:29:48;;;;;;;8.23;1.25;;;;;;;11.71;100.00;100512.97;6190856;23;20064;-75
2020/12/22 03:32:14;;;;;;;12.40;1.45;;;;;;;11.71;100.00;100512.16;6213511;23;20040;-75
2020/12/22 03:34:40;;;;;;;6.57;1.20;;;;;;;11.72;100.00;100517.41;6189601;23;20008;-76
2020/12/22 03:37:05;;;;;;;7.50;1.05;;;;;;;11.70;100.00;100514.09;6190569;23;20077;-76
2020/12/22 03:39:31;;;;;;;10.80;1.27;;;;;;;11.70;100.00;100514.09;6188810;23;20005;-75
2020/12/22 03:41:56;;;;;;;6.93;1.40;;;;;;;11.70;100.00;100514.09;6189293;23;20008;-75
2020/12/22 03:44:22;;;;;;;9.02;1.67;;;;;;;11.71;100.00;100507.41;6189612;23;20430;-76
2020/12/22 03:46:48;;;;;;;10.65;1.50;;;;;;;11.70;100.00;100502.97;6189150;23;20009;-74
2020/12/22 03:49:15;;;;;;;12.48;1.83;;;;;;;11.70;100.00;100496.56;6188732;23;20374;-76
2020/12/22 03:51:41;;;;;;;7.10;1.52;;;;;;;11.70;100.00;100497.41;6213553;23;20131;-72
2020/12/22 03:54:06;;;;;;;9.90;1.60;;;;;;;11.70;100.00;100491.84;6191057;23;20009;-76
2020/12/22 03:56:32;;;;;;;6.60;1.45;;;;;;;11.72;100.00;100494.31;6164093;23;20311;-76
2020/12/22 03:58:57;;;;;;;7.15;1.60;;;;;;;11.70;100.00;100494.63;6190944;23;20012;-75
2020/12/22 04:01:23;;;;;;;8.23;1.65;;;;;;;11.70;100.00;100502.13;6189475;23;20334;-76
2020/12/22 04:03:48;;;;;;;9.20;1.55;;;;;;;11.69;100.00;100490.19;6190822;23;20453;-76
2020/12/22 04:06:14;;;;;;;11.05;1.45;;;;;;;11.70;100.00;100486.28;6213655;23;20028;-76
2020/12/22 04:08:39;;;;;;;8.32;2.20;;;;;;;11.70;100.00;100500.19;6214197;23;20335;-76
2020/12/22 04:11:05;;;;;;;7.28;1.60;;;;;;;11.70;100.00;100505.75;6188389;23;20402;-76
2020/12/22 04:13:31;;;;;;;9.57;1.27;;;;;;;11.70;100.00;100502.97;6191011;23;20009;-76
2020/12/22 04:15:56;;;;;;;7.20;1.30;;;;;;;11.71;100.00;100501.84;6190399;23;20019;-75
2020/12/22 04:18:22;;;;;;;9.30;1.73;;;;;;;11.69;100.00;100504.09;6190032;23;20063;-75
2020/12/22 04:20:47;;;;;;;5.55;1.80;;;;;;;11.70;100.00;100508.53;6188719;23;20001;-75
2020/12/22 04:23:13;;;;;;;6.70;1.45;;;;;;;11.71;100.00;100499.06;6190673;23;20092;-75
2020/12/22 04:25:38;;;;;;;7.28;1.02;;;;;;;11.69;100.00;100497.72;6189778;23;20086;-75
2020/12/22 04:28:04;;;;;;;8.05;1.40;;;;;;;11.69;100.00;100490.19;6188864;23;20445;-75
2020/12/22 04:30:29;;;;;;;5.43;1.60;;;;;;;11.69;100.00;100495.75;6187931;23;20457;-75
2020/12/22 04:32:55;;;;;;;7.78;2.08;;;;;;;11.69;100.00;100501.31;6213871;23;20005;-75
2020/12/22 04:35:20;;;;;;;6.03;1.30;;;;;;;11.68;100.00;100496.88;6189964;23;20013;-75
2020/12/22 04:37:46;;;;;;;6.28;1.50;;;;;;;11.68;100.00;100491.31;6188458;23;20013;-75
2020/12/22 04:40:11;;;;;;;4.43;1.33;;;;;;;11.69;100.00;100497.72;6189853;23;20009;-76
2020/12/22 04:42:37;;;;;;;3.65;1.35;;;;;;;11.67;100.00;100495.22;6164271;23;20016;-75
2020/12/22 04:45:02;;;;;;;6.72;1.25;;;;;;;11.68;100.00;100502.44;6189954;23;20343;-75
2020/12/22 04:47:30;;;;;;;6.40;1.58;;;;;;;11.68;100.00;100494.09;6190018;23;20005;-75
2020/12/22 04:49:57;;;;;;;5.05;1.05;;;;;;;11.68;100.00;100499.66;6188110;23;20001;-75
2020/12/22 04:52:23;;;;;;;7.85;1.17;;;;;;;11.68;100.00;100498.84;6213985;23;20019;-75
2020/12/22 04:54:49;;;;;;;4.30;1.13;;;;;;;11.68;100.00;100491.31;6190021;23;20009;-75
2020/12/22 04:57:14;;;;;;;5.82;1.05;;;;;;;11.68;100.00;100494.09;6188204;23;20374;-75
2020/12/22 04:59:43;;;;;;;6.40;1.10;;;;;;;11.69;100.00;100500.50;6190192;23;20088;-75
2020/12/22 05:02:09;;;;;;;6.78;1.20;;;;;;;11.68;100.00;100505.22;6188367;23;20009;-75
2020/12/22 05:04:35;;;;;;;5.45;1.27;;;;;;;11.68;100.00;100508.00;6213348;23;20056;-75
2020/12/22 05:07:01;;;;;;;4.80;1.13;;;;;;;11.69;100.00;100506.06;6189878;23;20017;-75
2020/12/22 05:09:27;;;;;;;3.17;0.90;;;;;;;11.69;100.00;100506.88;6189393;23;20057;-75
2020/12/22 05:11:52;;;;;;;7.43;1.00;;;;;;;11.68;100.00;100505.22;6213561;23;20012;-75
2020/12/22 05:14:18;;;;;;;6.25;1.25;;;;;;;11.69;100.00;100500.50;6188160;23;20101;-75
2020/12/22 05:16:43;;;;;;;7.18;1.50;;;;;;;11.69;100.00;100503.28;6189788;23;20070;-75
2020/12/22 05:19:09;;;;;;;5.22;1.10;;;;;;;11.69;100.00;100512.44;6212966;23;20013;-75
2020/12/22 05:21:36;;;;;;;6.38;1.20;;;;;;;11.69;100.00;100522.75;6163898;23;20008;-75
2020/12/22 05:24:03;;;;;;;2.88;1.13;;;;;;;11.69;100.00;100518.00;6188558;23;20008;-75
2020/12/22 05:26:31;;;;;;;3.20;0.85;;;;;;;11.69;100.00;100511.63;6162876;23;20009;-76
2020/12/22 05:28:57;;;;;;;5.10;0.88;;;;;;;11.68;100.00;100508.00;6213525;23;20005;-75
2020/12/22 05:31:22;;;;;;;4.53;1.02;;;;;;;11.68;100.00;100513.56;6212479;23;20016;-75
2020/12/22 05:33:48;;;;;;;3.92;0.95;;;;;;;11.68;100.00;100510.78;6187975;23;20076;-75
2020/12/22 05:36:13;;;;;;;6.00;0.82;;;;;;;11.68;100.00;100505.22;6189569;23;20015;-75
2020/12/22 05:38:39;;;;;;;4.50;1.13;;;;;;;11.68;100.00;100505.22;6163336;23;20012;-75
2020/12/22 05:41:05;;;;;;;5.13;0.80;;;;;;;11.69;100.00;100503.28;6188206;23;20515;-75
2020/12/22 05:43:38;;;;;;;5.82;1.20;;;;;;;11.68;100.00;100510.78;6188394;23;20004;-76
2020/12/22 05:46:04;;;;;;;5.30;0.70;;;;;;;11.69;100.00;100506.88;6187792;23;20084;-76
2020/12/22 05:48:29;;;;;;;3.60;0.90;;;;;;;11.68;100.00;100509.97;6187752;23;20015;-75
2020/12/22 05:50:55;;;;;;;5.07;0.90;;;;;;;11.68;100.00;100515.53;6189549;23;20005;-75
2020/12/22 05:53:24;;;;;;;3.83;0.90;;;;;;;11.69;100.00;100518.00;6163526;23;20009;-75
2020/12/22 05:55:49;;;;;;;3.72;0.77;;;;;;;11.69;100.00;100519.97;6189176;23;20016;-75
2020/12/22 05:58:15;;;;;;;6.78;0.80;;;;;;;11.69;100.00;100519.97;6187765;23;20009;-75
2020/12/22 06:00:44;;;;;;;2.17;0.60;;;;;;;11.67;100.00;100520.25;6189915;23;20009;-75
2020/12/22 06:03:11;;;;;;;3.03;0.77;;;;;;;11.68;100.00;100524.69;6188118;23;20088;-75
2020/12/22 06:05:39;;;;;;;4.38;1.00;;;;;;;11.69;100.00;100526.34;6187777;23;20071;-75
2020/12/22 06:08:05;;;;;;;1.98;0.80;;;;;;;11.69;100.00;100519.97;6188086;23;20066;-75
2020/12/22 06:10:32;;;;;;;3.88;1.00;;;;;;;11.70;100.00;100528.03;6187876;23;20096;-75
2020/12/22 06:12:58;;;;;;;3.47;0.70;;;;;;;11.69;100.00;100528.31;6188705;23;20004;-75
2020/12/22 06:15:24;;;;;;;6.30;0.80;;;;;;;11.68;100.00;100526.66;6187958;23;20009;-75
2020/12/22 06:17:50;;;;;;;6.07;0.80;;;;;;;11.68;100.00;100538.63;6189165;23;20032;-75
2020/12/22 06:20:25;;;;;;;4.40;0.80;;;;;;;11.69;100.00;100536.66;6188012;23;20009;-75
2020/12/22 06:22:51;;;;;;;3.60;0.60;;;;;;;11.70;100.00;100541.94;6190664;23;20338;-75
2020/12/22 06:25:23;;;;;;;3.88;0.70;;;;;;;11.68;100.00;100533.06;6212236;23;20005;-75
2020/12/22 06:27:48;;;;;;;3.85;1.00;;;;;;;11.70;100.00;100538.28;6187989;23;20013;-75
2020/12/22 06:30:15;;;;;;;3.45;0.70;;;;;;;11.69;100.00;100548.59;6186838;23;20012;-76
2020/12/22 06:32:41;;;;;;;1.52;0.60;;;;;;;11.71;100.00;100549.13;6188172;23;20072;-76
2020/12/22 06:35:30;;;;;;;3.55;1.00;;;;;;;11.69;100.00;100534.69;6189584;23;20009;-75
2020/12/22 06:37:56;;;;;;;4.28;0.80;;;;;;;11.69;100.00;100540.25;6164778;23;20065;-76
2020/12/22 06:40:53;;;;;;;3.58;0.80;;;;;;;11.70;100.00;100547.50;6187607;23;20061;-75
2020/12/22 06:43:48;;;;;;;2.42;0.70;;;;;;;11.71;100.00;100546.34;6189295;23;20064;-75
2020/12/22 06:46:51;;;;;;;4.53;0.90;;;;;;;11.69;100.00;100548.59;6187711;23;20024;-76
2020/12/22 06:49:17;;;;;;;2.60;0.85;;;;;;;11.70;100.00;100557.78;6098762;23;20017;-75
2020/12/22 06:51:43;;;;;;;2.67;0.82;;;;;;;11.71;100.00;100560.25;6100223;23;20018;-75
2020/12/22 06:54:14;;;;;;;1.83;0.60;;;;;;;11.71;100.00;100551.91;6075907;23;20037;-75
2020/12/22 06:56:44;;;;;;;5.15;1.17;;;;;;;11.72;100.00;100556.34;6100063;23;20010;-76
2020/12/22 06:59:13;;;;;;;3.30;0.98;;;;;;;11.72;100.00;100547.19;6100206;23;20018;-76
2020/12/22 07:01:45;;;;;;;4.10;1.10;;;;;;;11.72;100.00;100553.56;6100641;23;20034;-76
2020/12/22 07:04:15;;;;;;;3.75;0.88;;;;;;;11.72;100.00;100553.56;6075690;23;20014;-76
2020/12/22 07:06:43;;;;;;;4.43;2.13;;;;;;;11.72;100.00;100553.56;6051703;23;20022;-77
2020/12/22 07:09:16;;;;;;;30.60;14.00;;;;;;;11.71;100.00;100557.47;6099841;23;20018;-75
2020/12/22 07:11:42;;;;;;;49.55;26.13;;;;;;;11.73;100.00;100562.72;6100281;23;20427;-76
2020/12/22 07:14:07;;;;;;;39.08;19.15;;;;;;;11.72;100.00;100559.13;6100168;23;20015;-76
2020/12/22 07:17:05;;;;;;;23.67;12.55;;;;;;;11.72;100.00;100561.91;6099872;23;20022;-75
2020/12/22 07:19:34;;;;;;;17.98;9.10;;;;;;;11.73;100.00;100558.03;6067894;23;20448;-76
2020/12/22 07:22:07;;;;;;;17.77;7.63;;;;;;;11.74;100.00;100562.44;6075657;23;20055;-76
2020/12/22 07:24:33;;;;;;;14.25;6.45;;;;;;;11.74;100.00;100561.63;6191144;23;20084;-76
2020/12/22 07:26:59;;;;;;;14.52;7.05;;;;;;;11.75;100.00;100566.03;6189845;23;20381;-76
2020/12/22 07:29:25;;;;;;;14.02;5.88;;;;;;;11.75;100.00;100566.88;6190817;23;20037;-76
2020/12/22 07:31:51;;;;;;;12.82;6.05;;;;;;;11.76;100.00;100565.75;6214032;23;20040;-76
2020/12/22 07:34:16;;;;;;;10.73;4.78;;;;;;;11.78;100.00;100562.66;6189314;23;20009;-76
2020/12/22 07:36:42;;;;;;;9.38;4.20;;;;;;;11.76;100.00;100562.97;6190981;23;20009;-75
2020/12/22 07:39:23;;;;;;;11.07;3.95;;;;;;;11.77;100.00;100553.50;6190676;23;20009;-75
2020/12/22 07:41:52;;;;;;;9.48;3.35;;;;;;;11.79;100.00;100567.94;6189216;23;20375;-75
2020/12/22 07:44:21;;;;;;;10.93;3.33;;;;;;;11.79;100.00;100570.72;6164481;23;20013;-74
2020/12/22 07:46:48;;;;;;;8.05;3.03;;;;;;;11.80;100.00;100560.41;6189742;23;20009;-75
2020/12/22 07:49:15;;;;;;;5.97;2.50;;;;;;;11.82;100.00;100561.78;6190288;23;20016;-75
2020/12/22 07:51:48;;;;;;;7.05;2.33;;;;;;;11.83;100.00;100565.38;6189005;23;20081;-75
2020/12/22 07:54:13;;;;;;;;;;;;;;;11.83;100.00;100562.59;6189425;23;20076;-75
2020/12/22 07:56:43;;;;;;;6.97;2.30;;;;;;;11.82;100.00;100575.69;6191255;23;19904;-75
2020/12/22 07:59:11;;;;;;;3.85;1.50;;;;;;;11.83;100.00;100576.50;6189353;23;20008;-74
2020/12/22 08:01:38;;;;;;;5.75;1.83;;;;;;;11.83;100.00;100571.75;6213969;23;20001;-75
2020/12/22 08:04:17;;;;;;;8.02;1.70;;;;;;;11.84;100.00;100579.00;6188584;23;20446;-75
2020/12/22 08:07:06;;;;;;;5.82;1.67;;;;;;;11.84;100.00;100592.09;6188353;23;20039;-75
2020/12/22 08:09:32;;;;;;;4.80;1.63;;;;;;;11.85;100.00;100599.31;6190390;23;20009;-74
2020/12/22 08:12:02;;;;;;;10.02;1.77;;;;;;;11.85;100.00;100600.16;6189783;23;20009;-75
2020/12/22 08:14:28;;;;;;;7.32;1.42;;;;;;;11.86;100.00;100600.97;6190238;23;20013;-75
2020/12/22 08:16:58;;;;;;;7.63;1.40;;;;;;;11.85;100.00;100596.53;6214156;23;20337;-74
2020/12/22 08:19:24;;;;;;;9.77;1.67;;;;;;;11.87;100.00;100596.22;6213729;23;20705;-75
2020/12/22 08:21:49;;;;;;;12.68;4.20;;;;;;;11.86;100.00;100595.41;6188365;23;20047;-71
2020/12/22 08:24:16;;;;;;;17.20;7.50;;;;;;;11.85;100.00;100593.72;6188454;23;20009;-76
2020/12/22 08:26:47;;;;;;;10.02;4.13;;;;;;;11.88;100.00;100595.13;6164374;23;20032;-76
2020/12/22 08:29:13;;;;;;;9.15;3.47;;;;;;;11.88;100.00;100609.84;6189736;23;20042;-75
2020/12/22 08:31:39;;;;;;;9.02;4.05;;;;;;;11.89;100.00;100605.94;6187233;23;20356;-75
2020/12/22 08:34:04;;;;;;;9.68;2.90;;;;;;;11.90;100.00;100604.00;6189948;23;20015;-76
2020/12/22 08:36:30;;;;;;;7.13;2.50;;;;;;;11.90;100.00;100604.00;6189524;23;20410;-72
2020/12/22 08:39:21;;;;;;;6.78;2.30;;;;;;;11.91;100.00;100603.69;6190304;23;20326;-76
2020/12/22 08:41:54;;;;;;;10.98;3.60;;;;;;;11.90;100.00;100602.03;6185816;23;20379;-76
2020/12/22 08:44:20;;;;;;;13.38;6.10;;;;;;;11.93;100.00;100612.56;6140555;23;20060;-75
2020/12/22 08:46:46;;;;;;;9.50;3.90;;;;;;;11.94;100.00;100616.19;6164269;23;20419;-76
2020/12/22 08:49:22;;;;;;;10.35;3.63;;;;;;;11.95;100.00;100627.03;6188557;23;20020;-74
2020/12/22 08:51:47;;;;;;;9.13;3.08;;;;;;;11.95;100.00;100631.75;6212700;23;20031;-76
2020/12/22 08:54:14;;;;;;;10.95;3.95;;;;;;;11.95;100.00;100627.03;6189650;23;20008;-76
2020/12/22 08:56:39;;;;;;;9.57;4.13;;;;;;;11.97;100.00;100630.31;6188845;23;20009;-76
2020/12/22 08:59:07;;;;;;;10.98;5.07;;;;;;;11.99;100.00;100638.38;6214161;23;20009;-76
2020/12/22 09:01:46;;;;;;;10.32;4.00;;;;;;;12.00;100.00;100634.44;6213396;23;20001;-75
2020/12/22 09:04:11;;;;;;;9.27;3.65;;;;;;;12.01;100.00;100641.69;6213290;23;20076;-75
2020/12/22 09:06:39;;;;;;;19.02;9.35;;;;;;;12.01;100.00;100636.94;6188356;23;20028;-76
2020/12/22 09:09:17;;;;;;;17.33;7.93;;;;;;;12.05;100.00;100637.16;6214053;23;20004;-75
2020/12/22 09:11:46;;;;;;;12.98;5.75;;;;;;;12.06;100.00;100644.38;6189871;23;20023;-75
2020/12/22 09:14:13;;;;;;;15.10;5.85;;;;;;;12.06;100.00;100655.50;6189785;23;20016;-76
2020/12/22 09:16:56;;;;;;;12.00;3.95;;;;;;;12.07;100.00;100660.78;6190007;23;20009;-75
2020/12/22 09:19:29;;;;;;;7.80;3.25;;;;;;;12.10;100.00;100656.59;6188045;23;20028;-75
2020/12/22 09:21:59;;;;;;;8.15;3.13;;;;;;;12.11;100.00;100646.28;6212783;23;20008;-76
2020/12/22 09:24:25;;;;;;;6.57;3.28;;;;;;;12.11;100.00;100663.78;6188041;23;20008;-75
2020/12/22 09:26:52;;;;;;;5.07;2.80;;;;;;;12.12;100.00;100659.03;6212999;23;20009;-75
2020/12/22 09:29:17;;;;;;;6.55;2.92;;;;;;;12.11;100.00;100649.88;6187515;23;20009;-75
2020/12/22 09:31:43;;;;;;;6.65;2.35;;;;;;;12.14;100.00;100665.16;6187730;23;20009;-75
2020/12/22 09:34:08;;;;;;;6.68;2.80;;;;;;;12.12;100.00;100671.03;6162892;23;20015;-76
2020/12/22 09:36:34;;;;;;;4.93;1.90;;;;;;;12.15;100.00;100664.03;6189601;23;20019;-75
2020/12/22 09:38:59;;;;;;;10.23;4.65;;;;;;;12.15;100.00;100664.03;6189097;23;20009;-77
2020/12/22 09:41:25;;;;;;;23.60;10.23;;;;;;;12.16;100.00;100669.28;6163735;23;20005;-75
2020/12/22 09:43:51;;;;;;;20.85;10.18;;;;;;;12.17;100.00;100672.91;6163396;23;20445;-76
2020/12/22 09:46:16;;;;;;;16.85;8.10;;;;;;;12.17;100.00;100665.38;6187950;23;20454;-75
2020/12/22 09:48:42;;;;;;;16.92;6.93;;;;;;;12.20;100.00;100650.88;6212946;23;20013;-75
2020/12/22 09:51:14;;;;;;;11.05;5.53;;;;;;;12.21;100.00;100674.78;6189811;23;20052;-75
2020/12/22 09:53:39;;;;;;;6.22;3.13;;;;;;;12.24;100.00;100668.63;6189521;23;20024;-75
2020/12/22 09:56:05;;;;;;;8.55;4.93;;;;;;;12.25;100.00;100670.25;6189054;23;20308;-75
2020/12/22 09:58:30;;;;;;;9.40;4.57;;;;;;;12.28;100.00;100675.22;6187302;23;20013;-75
2020/12/22 10:00:56;;;;;;;8.40;3.55;;;;;;;12.30;100.00;100680.50;6189036;23;20005;-75
2020/12/22 10:03:21;;;;;;;8.68;3.72;;;;;;;12.33;100.00;100681.88;6189011;23;20004;-75
2020/12/22 10:05:48;;;;;;;55.97;29.58;;;;;;;12.33;100.00;100681.88;6189441;23;20017;-75
2020/12/22 10:08:14;;;;;;;52.70;29.30;;;;;;;12.33;100.00;100684.66;6187758;23;20431;-74
2020/12/22 10:10:39;;;;;;;34.05;19.77;;;;;;;12.34;100.00;100683.50;6212694;23;20028;-75
2020/12/22 10:13:05;;;;;;;49.78;28.05;;;;;;;12.35;100.00;100679.63;6114355;23;20453;-75
2020/12/22 10:15:30;;;;;;;28.75;15.98;;;;;;;12.35;100.00;100683.22;6213102;23;20009;-75
2020/12/22 10:17:56;;;;;;;25.85;14.75;;;;;;;12.36;100.00;100682.06;6212490;23;20059;-75
2020/12/22 10:20:21;;;;;;;21.33;12.93;;;;;;;12.38;100.00;100679.00;6189374;23;20009;-75
2020/12/22 10:22:47;;;;;;;18.42;10.35;;;;;;;12.39;100.00;100686.22;6163546;23;20390;-75
2020/12/22 10:25:12;;;;;;;14.50;8.57;;;;;;;12.40;100.00;100687.91;6214096;23;20012;-75
2020/12/22 10:27:38;;;;;;;12.50;7.00;;;;;;;12.41;100.00;100682.00;6191535;23;20015;-75
2020/12/22 10:30:04;;;;;;;18.27;9.30;;;;;;;12.43;100.00;100693.69;6214431;23;20024;-75
2020/12/22 10:32:29;;;;;;;13.80;8.18;;;;;;;12.46;100.00;100686.69;6190745;23;20071;-75
2020/12/22 10:34:55;;;;;;;12.93;6.50;;;;;;;12.48;100.00;100681.63;6191562;23;20009;-75
2020/12/22 10:37:21;;;;;;;12.57;6.97;;;;;;;12.49;100.00;100677.72;6190028;23;20334;-75
2020/12/22 10:39:51;;;;;;;14.77;7.93;;;;;;;12.49;100.00;100681.31;6188998;23;20012;-75
2020/12/22 10:42:19;;;;;;;12.50;7.57;;;;;;;12.51;100.00;100673.50;6191273;23;20001;-75
2020/12/22 10:44:45;;;;;;;12.48;7.03;;;;;;;12.53;100.00;100676.78;6191611;23;20036;-74
2020/12/22 10:47:11;;;;;;;8.20;5.00;;;;;;;12.56;100.00;100675.34;6190895;23;20009;-75
2020/12/22 10:49:36;;;;;;;8.05;3.45;;;;;;;12.59;100.00;100677.56;6189417;23;20009;-75
2020/12/22 10:52:02;;;;;;;7.90;3.92;;;;;;;12.61;100.00;100672.50;6191374;23;20013;-75
2020/12/22 10:54:28;;;;;;;6.82;3.17;;;;;;;12.63;100.00;100675.81;6163827;23;20009;-75
2020/12/22 10:56:53;;;;;;;5.68;3.10;;;;;;;12.62;100.00;100679.75;6189528;23;20346;-75
2020/12/22 10:59:19;;;;;;;4.53;2.53;;;;;;;12.64;100.00;100676.63;6191531;23;20009;-75
2020/12/22 11:01:47;;;;;;;4.03;2.30;;;;;;;12.65;100.00;100670.75;6189387;23;20300;-69
2020/12/22 11:04:12;;;;;;;3.75;1.80;;;;;;;12.66;100.00;100669.63;6190834;23;20005;-75
2020/12/22 11:09:08;;;;;;;2.03;1.15;;;;;;;12.69;100.00;100665.41;6188670;23;20005;-75
2020/12/22 11:11:34;;;;;;;2.08;1.40;;;;;;;12.68;100.00;100664.59;6188206;23;20064;-76
2020/12/22 11:13:59;;;;;;;2.35;1.67;;;;;;;12.70;100.00;100659.53;6189419;23;20009;-75
2020/12/22 11:16:28;;;;;;;2.42;1.35;;;;;;;12.70;100.00;100669.84;6190735;23;20009;-75